Hovedside
METAR-TAF:

METAR-TAF

Lufthavner :

Port Vila, Efate, Vanuatu

breddegrad: 17-42S, lengdegrad: 168-18E, høyde over havet: 20 m

Gjeldene værobservasjon

Denne rapporten ble laget for 41 minutter siden, klokken 03:00 UTC
Vind 7 kt fra Sørøst
Temperatur 27°C
Luftfuktighet 74%
Trykk 1012 hPa
Sikt 10 km eller mer
Brutte skyer i en høyde av 2000 ft
Brutte skyer i en høyde av 4000 ft

METAR: NVVV 200300Z 13007KT 9999 BKN020 BKN040 27/22 Q1012

Tid: 14:41 (03:41 UTC)

Varsel

Denne rapporten ble laget for 4 timer og 41 minutter siden, klokken 23:00 UTC
Varsel gyldig fra 20. klokken 00 UTC til 20. klokken 24 UTC
Vind 8 kt fra Sørøst
Sikt: 9000 m
Spredte skyer i en høyde av 1800 ft
Brutte skyer i en høyde av 3800 ft
Spredte skyer i en høyde av 1200 ft
Brutte skyer i en høyde av 1800 ft
regnbyger,

TAF: NVVV 192300Z 2000/2024 13008KT 9999 SCT018 BKN038 INTER 2000/2006 9000 SHRA SCT012 BKN018

Værobservasjoner og værvarsel for over 4000 flyplasser (METAR- og TAF-rapporter).

Tilgjengelige stasjoner er representert av de røde og gule prikkene på kartet.

Hold musepekeren over prikken for å se navnet på stasjonen.

Klikk så for å se værobservasjoner og -varsler.

For å forandre kartet kan du klikke på den grønne knappen med svart kryss for å zoome inn, på den grønne knappen med strek for å zoome ut, eller på de grønne pilene for å se tilstøtende kart.


METAR-TAF: